createdAt,value
2022-12-20T00:01:57.033Z,92.79
2022-12-20T00:04:25.328Z,92.65
2022-12-20T00:06:53.076Z,92.57
2022-12-20T00:09:25.702Z,92.50
2022-12-20T00:11:54.093Z,92.52
2022-12-20T00:14:22.168Z,92.58
2022-12-20T00:16:50.005Z,92.35
2022-12-20T00:19:21.507Z,92.89
2022-12-20T00:21:52.458Z,92.63
2022-12-20T00:24:25.899Z,92.52
2022-12-20T00:26:54.852Z,92.48
2022-12-20T00:29:23.035Z,92.53
2022-12-20T00:31:51.018Z,92.94
2022-12-20T00:34:19.367Z,92.35
2022-12-20T00:36:47.591Z,92.76
2022-12-20T00:39:15.362Z,92.62
2022-12-20T00:41:43.220Z,92.83
2022-12-20T00:44:11.594Z,92.55
2022-12-20T00:46:42.309Z,92.49
2022-12-20T00:49:10.596Z,92.77
2022-12-20T00:51:39.061Z,92.80
2022-12-20T00:54:07.007Z,93.00
2022-12-20T00:56:34.945Z,93.51
2022-12-20T00:59:03.265Z,92.28
2022-12-20T01:01:35.224Z,92.21
2022-12-20T01:04:04.539Z,92.31
2022-12-20T01:06:33.293Z,92.57
2022-12-20T01:09:05.569Z,93.07
2022-12-20T01:11:36.330Z,92.94
2022-12-20T01:14:14.993Z,92.99
2022-12-20T01:16:46.130Z,92.27
2022-12-20T01:19:17.153Z,92.75
2022-12-20T01:21:46.330Z,93.16
2022-12-20T01:24:16.761Z,93.00
2022-12-20T01:26:45.447Z,92.91
2022-12-20T01:29:14.372Z,93.38
2022-12-20T01:31:46.396Z,93.07
2022-12-20T01:34:14.616Z,92.94
2022-12-20T01:36:42.834Z,92.68
2022-12-20T01:39:16.291Z,92.94
2022-12-20T01:41:45.843Z,92.30
2022-12-20T01:44:19.796Z,92.49
2022-12-20T01:46:49.376Z,92.24
2022-12-20T01:49:23.157Z,92.82
2022-12-20T01:52:06.393Z,93.00
2022-12-20T01:54:50.250Z,93.07
2022-12-20T01:57:31.928Z,92.81
2022-12-20T01:59:59.925Z,93.35
2022-12-20T02:02:28.485Z,93.21
2022-12-20T02:04:56.885Z,93.31
2022-12-20T02:07:28.841Z,93.36
2022-12-20T02:09:59.217Z,92.87
2022-12-20T02:12:39.097Z,92.12
2022-12-20T02:15:18.135Z,92.34
2022-12-20T02:18:00.243Z,91.47
2022-12-20T02:20:46.497Z,91.48
2022-12-20T02:23:46.311Z,92.25
2022-12-20T02:26:43.026Z,92.26
2022-12-20T02:29:24.183Z,92.35
2022-12-20T02:32:16.845Z,91.39
2022-12-20T02:34:45.271Z,91.18
2022-12-20T02:37:13.545Z,91.16
2022-12-20T02:39:44.461Z,91.56
2022-12-20T02:42:21.889Z,90.91
2022-12-20T02:45:14.620Z,90.80
2022-12-20T02:48:08.401Z,90.34
2022-12-20T02:50:46.771Z,91.07
2022-12-20T02:53:15.412Z,91.69
2022-12-20T02:55:56.074Z,91.32
2022-12-20T02:58:44.871Z,90.87
2022-12-20T03:01:29.276Z,90.94
2022-12-20T03:03:59.193Z,90.53
2022-12-20T03:06:31.146Z,91.08
2022-12-20T03:08:58.861Z,90.83
2022-12-20T03:11:27.936Z,91.00
2022-12-20T03:13:56.045Z,91.08
2022-12-20T03:16:26.862Z,91.05
2022-12-20T03:18:55.125Z,90.96
2022-12-20T03:21:23.118Z,90.99
2022-12-20T03:23:50.966Z,90.84
2022-12-20T03:26:19.356Z,90.45
2022-12-20T03:28:48.172Z,90.99
2022-12-20T03:31:16.288Z,91.34
2022-12-20T03:33:44.819Z,90.83
2022-12-20T03:36:12.929Z,91.30
2022-12-20T03:38:41.744Z,91.29
2022-12-20T03:41:10.360Z,91.19
2022-12-20T03:43:38.385Z,91.87
2022-12-20T03:46:06.594Z,92.45
2022-12-20T03:48:35.317Z,91.89
2022-12-20T03:51:03.261Z,92.14
2022-12-20T03:53:31.433Z,92.60
2022-12-20T03:56:02.936Z,93.92
2022-12-20T03:58:30.752Z,92.04
2022-12-20T04:00:58.738Z,92.52
2022-12-20T04:03:28.684Z,93.19
2022-12-20T04:05:56.928Z,93.05
2022-12-20T04:08:25.044Z,93.37
2022-12-20T04:11:12.499Z,93.64
2022-12-20T04:13:55.176Z,94.18
2022-12-20T04:16:28.455Z,93.87
2022-12-20T04:18:56.804Z,95.00
2022-12-20T04:21:28.529Z,94.28
2022-12-20T04:23:57.714Z,94.05
2022-12-20T04:26:27.361Z,94.14
2022-12-20T04:28:56.891Z,93.55
2022-12-20T04:31:25.292Z,93.88
2022-12-20T04:33:54.191Z,96.77
2022-12-20T04:36:25.513Z,93.73
2022-12-20T04:38:55.361Z,91.95
2022-12-20T04:41:23.437Z,93.47
2022-12-20T04:43:54.429Z,94.51
2022-12-20T04:46:24.729Z,93.84
2022-12-20T04:48:58.974Z,95.15
2022-12-20T04:51:28.995Z,93.78
2022-12-20T04:53:57.114Z,94.14
2022-12-20T04:56:28.696Z,93.48
2022-12-20T04:58:59.159Z,92.98
2022-12-20T05:01:28.102Z,94.43
2022-12-20T05:03:56.489Z,97.14
2022-12-20T05:06:26.822Z,91.61
2022-12-20T05:08:55.553Z,92.68
2022-12-20T05:11:23.632Z,92.79
2022-12-20T05:13:51.951Z,92.90
2022-12-20T05:16:21.339Z,95.91
2022-12-20T05:18:49.983Z,92.25
2022-12-20T05:21:38.197Z,92.85
2022-12-20T05:24:25.539Z,91.66
2022-12-20T05:26:54.692Z,92.41
2022-12-20T05:29:22.456Z,92.93
2022-12-20T05:31:50.679Z,94.01
2022-12-20T05:34:18.968Z,93.94
2022-12-20T05:36:47.999Z,92.55
2022-12-20T05:39:18.749Z,92.63
2022-12-20T05:41:48.816Z,92.36
2022-12-20T05:44:17.781Z,93.93
2022-12-20T05:46:48.278Z,91.20
2022-12-20T05:49:16.731Z,93.66
2022-12-20T05:51:45.765Z,90.49
2022-12-20T05:54:16.818Z,89.67
2022-12-20T05:56:45.568Z,89.90
2022-12-20T05:59:18.114Z,94.14
2022-12-20T06:01:47.343Z,95.95
2022-12-20T06:04:16.276Z,89.44
2022-12-20T06:06:45.988Z,93.55
2022-12-20T06:09:16.271Z,91.29
2022-12-20T06:11:45.049Z,92.38
2022-12-20T06:14:14.097Z,90.69
2022-12-20T06:16:47.648Z,89.96
2022-12-20T06:19:21.135Z,93.30
2022-12-20T06:21:51.099Z,91.05
2022-12-20T06:24:19.820Z,93.53
2022-12-20T06:26:49.292Z,86.25
2022-12-20T06:29:21.202Z,90.39
2022-12-20T06:31:50.347Z,87.78
2022-12-20T06:34:19.526Z,84.61
2022-12-20T06:36:47.818Z,88.62
2022-12-20T06:39:19.821Z,85.86
2022-12-20T06:41:48.607Z,85.42
2022-12-20T06:44:17.545Z,86.99
2022-12-20T06:46:45.570Z,87.54
2022-12-20T06:49:14.757Z,87.49
2022-12-20T06:51:43.237Z,87.59
2022-12-20T06:54:12.761Z,87.28
2022-12-20T06:56:41.689Z,87.12
2022-12-20T06:59:09.955Z,86.84
2022-12-20T07:01:40.780Z,88.24
2022-12-20T07:04:09.050Z,87.80
2022-12-20T07:06:37.061Z,87.95
2022-12-20T07:09:04.905Z,86.73
2022-12-20T07:11:32.988Z,85.47
2022-12-20T07:14:01.413Z,88.29
2022-12-20T07:16:29.423Z,85.17
2022-12-20T07:18:57.558Z,86.00
2022-12-20T07:21:25.475Z,84.55
2022-12-20T07:23:55.671Z,85.54
2022-12-20T07:26:23.826Z,83.51
2022-12-20T07:28:51.557Z,83.53
2022-12-20T07:31:19.444Z,84.06
2022-12-20T07:33:47.665Z,84.59
2022-12-20T07:36:18.810Z,83.34
2022-12-20T07:38:47.092Z,82.65
2022-12-20T07:41:18.466Z,81.00
2022-12-20T07:43:46.395Z,81.42
2022-12-20T07:46:15.806Z,82.37
2022-12-20T07:48:44.902Z,81.01
2022-12-20T07:51:38.701Z,79.71
2022-12-20T07:54:32.944Z,80.13
2022-12-20T07:57:07.129Z,78.70
2022-12-20T07:59:45.127Z,78.36
2022-12-20T08:02:24.969Z,78.15
2022-12-20T08:04:55.823Z,78.37
2022-12-20T08:07:25.113Z,79.46
2022-12-20T08:09:53.333Z,79.83
2022-12-20T08:12:26.317Z,78.37
2022-12-20T08:14:56.574Z,79.28
2022-12-20T08:17:24.798Z,79.01
2022-12-20T08:19:52.693Z,78.30
2022-12-20T08:22:21.390Z,77.15
2022-12-20T08:24:49.224Z,76.89
2022-12-20T08:27:17.090Z,83.88
2022-12-20T08:29:45.270Z,77.17
2022-12-20T08:32:14.545Z,77.53
2022-12-20T08:34:42.530Z,81.27
2022-12-20T08:37:14.701Z,76.98
2022-12-20T08:39:43.865Z,76.84
2022-12-20T08:42:12.912Z,77.39
2022-12-20T08:44:40.638Z,77.40
2022-12-20T08:47:08.345Z,77.13
2022-12-20T08:49:39.081Z,77.11
2022-12-20T08:52:10.399Z,78.59
2022-12-20T08:54:38.597Z,77.91
2022-12-20T08:57:06.403Z,76.06
2022-12-20T08:59:34.220Z,75.31
2022-12-20T09:02:02.576Z,74.76
2022-12-20T09:04:30.447Z,74.93
2022-12-20T09:06:58.333Z,72.95
2022-12-20T09:09:26.538Z,70.14
2022-12-20T09:11:54.325Z,71.17
2022-12-20T09:14:22.211Z,72.84
2022-12-20T09:16:50.454Z,71.60
2022-12-20T09:19:18.349Z,71.99
2022-12-20T09:21:46.211Z,65.82
2022-12-20T09:24:14.520Z,70.67
2022-12-20T09:26:42.594Z,62.03
2022-12-20T09:29:13.477Z,63.57
2022-12-20T09:31:41.632Z,66.46
2022-12-20T09:34:10.467Z,67.65
2022-12-20T09:36:38.609Z,66.28
2022-12-20T09:39:06.976Z,66.75
2022-12-20T09:41:39.358Z,67.79
2022-12-20T09:44:31.107Z,63.71
2022-12-20T09:47:11.447Z,62.50
2022-12-20T09:49:46.325Z,63.49
2022-12-20T09:52:25.891Z,61.55
2022-12-20T09:55:25.051Z,60.33
2022-12-20T09:58:05.602Z,56.18
2022-12-20T10:01:15.185Z,57.22
2022-12-20T10:03:44.081Z,59.33
2022-12-20T10:06:18.079Z,59.51
2022-12-20T10:09:34.601Z,59.05
2022-12-20T10:12:11.906Z,60.79
2022-12-20T10:15:16.346Z,60.04
2022-12-20T10:18:10.280Z,63.33
2022-12-20T10:21:04.337Z,60.06
2022-12-20T10:23:45.296Z,62.37
2022-12-20T10:26:14.426Z,59.59
2022-12-20T10:28:42.534Z,63.43
2022-12-20T10:31:20.195Z,61.31
2022-12-20T10:33:48.421Z,59.72
2022-12-20T10:36:27.368Z,57.16
2022-12-20T10:39:01.243Z,61.07
2022-12-20T10:41:55.830Z,57.71
2022-12-20T10:44:30.152Z,58.33
2022-12-20T10:47:01.646Z,57.65
2022-12-20T10:49:39.001Z,55.93
2022-12-20T10:52:09.708Z,59.90
2022-12-20T10:54:42.975Z,58.80
2022-12-20T10:57:15.017Z,59.85
2022-12-20T10:59:49.573Z,59.77
2022-12-20T11:02:42.068Z,59.91
2022-12-20T11:05:14.846Z,57.69
2022-12-20T11:10:47.409Z,60.30
2022-12-20T11:13:27.119Z,58.85
2022-12-20T11:15:57.929Z,60.83
2022-12-20T11:18:51.397Z,60.47
2022-12-20T11:21:43.284Z,61.00
2022-12-20T11:24:32.589Z,61.26
2022-12-20T11:27:00.608Z,62.12
2022-12-20T11:29:43.431Z,61.72
2022-12-20T11:32:48.899Z,62.40
2022-12-20T11:35:50.827Z,62.01
2022-12-20T11:38:19.189Z,62.63
2022-12-20T11:41:06.193Z,63.33
2022-12-20T11:44:23.395Z,65.14
2022-12-20T11:46:43.885Z,65.40
2022-12-20T11:49:30.494Z,66.19
2022-12-20T11:52:13.564Z,67.27
2022-12-20T11:54:50.417Z,67.73
2022-12-20T11:57:27.082Z,68.78
2022-12-20T12:00:01.269Z,71.07
2022-12-20T12:02:58.195Z,71.19
2022-12-20T12:05:49.385Z,69.70
2022-12-20T12:08:32.607Z,70.31
2022-12-20T12:12:04.535Z,71.34
2022-12-20T12:14:46.890Z,77.69
2022-12-20T12:17:35.182Z,72.72
2022-12-20T12:20:20.752Z,76.28
2022-12-20T12:22:51.496Z,80.04
2022-12-20T12:25:20.006Z,85.04
2022-12-20T12:27:48.070Z,82.50
2022-12-20T12:33:08.929Z,84.04
2022-12-20T12:35:49.272Z,79.84
2022-12-20T12:38:43.174Z,79.77
2022-12-20T12:41:10.851Z,86.99
2022-12-20T12:43:55.314Z,83.79
2022-12-20T12:46:32.654Z,78.30
2022-12-20T12:49:07.195Z,84.37
2022-12-20T12:51:37.953Z,84.42
2022-12-20T12:54:28.111Z,81.28
2022-12-20T12:57:07.283Z,84.98
2022-12-20T12:59:35.257Z,82.98
2022-12-20T13:02:04.211Z,84.05
2022-12-20T13:04:53.542Z,84.76
2022-12-20T13:07:43.798Z,77.82
2022-12-20T13:10:18.619Z,85.21
2022-12-20T13:12:52.870Z,86.08
2022-12-20T13:15:20.599Z,84.47
2022-12-20T13:18:07.241Z,81.44
2022-12-20T13:20:36.483Z,76.43
2022-12-20T13:23:13.064Z,79.44
2022-12-20T13:25:49.426Z,81.31
2022-12-20T13:28:18.259Z,78.62
2022-12-20T13:33:40.788Z,83.42
2022-12-20T13:36:23.476Z,85.25
2022-12-20T13:38:57.363Z,82.04
2022-12-20T13:41:41.827Z,80.08
2022-12-20T13:44:24.790Z,84.70
2022-12-20T13:47:06.484Z,80.07
2022-12-20T13:49:42.783Z,81.24
2022-12-20T13:52:19.859Z,80.71
2022-12-20T13:54:52.724Z,80.81
2022-12-20T13:57:31.538Z,85.00
2022-12-20T14:00:07.113Z,80.69
2022-12-20T14:02:42.337Z,81.13
2022-12-20T14:05:32.388Z,83.41
2022-12-20T14:08:16.372Z,85.95
2022-12-20T14:10:44.553Z,87.96
2022-12-20T14:13:39.483Z,85.99
2022-12-20T14:16:26.622Z,91.04
2022-12-20T14:19:03.726Z,89.07
2022-12-20T14:21:35.071Z,88.29
2022-12-20T14:24:04.394Z,83.78
2022-12-20T14:26:45.038Z,88.48
2022-12-20T14:29:18.634Z,86.25
2022-12-20T14:31:50.381Z,83.89
2022-12-20T14:34:33.072Z,84.44
2022-12-20T14:37:34.770Z,85.28
2022-12-20T14:40:05.451Z,84.56
2022-12-20T14:42:38.240Z,77.92
2022-12-20T14:45:19.295Z,79.76
2022-12-20T14:48:13.201Z,78.79
2022-12-20T14:50:41.629Z,80.34
2022-12-20T14:53:20.351Z,85.37
2022-12-20T14:55:48.807Z,88.51
2022-12-20T14:58:31.563Z,85.77
2022-12-20T15:01:01.068Z,84.57
2022-12-20T15:03:29.392Z,85.32
2022-12-20T15:06:00.990Z,86.56
2022-12-20T15:08:34.620Z,80.51
2022-12-20T15:11:23.153Z,85.24
2022-12-20T15:13:54.776Z,87.75
2022-12-20T15:16:24.713Z,85.69
2022-12-20T15:19:02.958Z,84.04
2022-12-20T15:21:35.845Z,83.06
2022-12-20T15:24:09.964Z,82.55
2022-12-20T15:26:38.530Z,82.61
2022-12-20T15:29:07.489Z,82.88
2022-12-20T15:31:38.216Z,82.74
2022-12-20T15:34:22.798Z,82.58
2022-12-20T15:36:50.692Z,82.16
2022-12-20T15:39:18.961Z,81.85
2022-12-20T15:41:49.605Z,82.09
2022-12-20T15:44:26.512Z,81.84
2022-12-20T15:46:55.414Z,81.81
2022-12-20T15:49:26.303Z,81.91
2022-12-20T15:51:55.289Z,81.96
2022-12-20T15:54:30.755Z,81.93
2022-12-20T15:57:03.445Z,81.85
2022-12-20T16:02:26.769Z,81.86
2022-12-20T16:04:55.995Z,81.89
2022-12-20T16:07:24.333Z,81.92
2022-12-20T16:09:52.167Z,81.78
2022-12-20T16:12:32.322Z,81.84
2022-12-20T16:15:00.681Z,81.82
2022-12-20T16:17:31.203Z,82.03
2022-12-20T16:19:59.356Z,81.88
2022-12-20T16:22:27.338Z,81.96
2022-12-20T16:24:55.967Z,82.08
2022-12-20T16:27:23.843Z,82.09
2022-12-20T16:29:54.641Z,81.93
2022-12-20T16:32:23.015Z,81.98
2022-12-20T16:34:51.809Z,82.07
2022-12-20T16:37:20.654Z,82.06
2022-12-20T16:39:49.295Z,81.94
2022-12-20T16:42:22.705Z,82.02
2022-12-20T16:44:54.487Z,82.08
2022-12-20T16:47:22.678Z,82.02
2022-12-20T16:49:53.222Z,82.00
2022-12-20T16:52:23.014Z,81.93
2022-12-20T16:54:51.611Z,81.89
2022-12-20T16:57:20.067Z,82.12
2022-12-20T16:59:51.904Z,82.21
2022-12-20T17:02:29.643Z,82.19
2022-12-20T17:04:59.131Z,82.19
2022-12-20T17:07:27.492Z,82.19
2022-12-20T17:09:55.399Z,82.35
2022-12-20T17:12:24.105Z,82.28
2022-12-20T17:14:52.177Z,82.04
2022-12-20T17:17:20.325Z,82.22
2022-12-20T17:19:51.800Z,82.33
2022-12-20T17:22:26.952Z,82.39
2022-12-20T17:24:55.168Z,82.36
2022-12-20T17:27:23.191Z,82.30
2022-12-20T17:29:51.284Z,82.31
2022-12-20T17:32:26.312Z,82.31
2022-12-20T17:34:55.554Z,82.27
2022-12-20T17:37:27.336Z,82.50
2022-12-20T17:39:55.334Z,82.36
2022-12-20T17:42:30.566Z,82.22
2022-12-20T17:45:02.253Z,82.20
2022-12-20T17:47:31.952Z,82.22
2022-12-20T17:49:59.942Z,82.23
2022-12-20T17:52:27.938Z,82.19
2022-12-20T17:54:58.951Z,82.22
2022-12-20T17:57:26.770Z,82.22
2022-12-20T17:59:54.626Z,81.97
2022-12-20T18:02:25.721Z,81.83
2022-12-20T18:04:54.668Z,81.94
2022-12-20T18:07:22.399Z,82.19
2022-12-20T18:09:50.477Z,82.17
2022-12-20T18:12:18.929Z,82.30
2022-12-20T18:14:48.942Z,82.20
2022-12-20T18:17:16.824Z,82.02
2022-12-20T18:19:45.853Z,81.97
2022-12-20T18:22:14.979Z,82.03
2022-12-20T18:24:42.847Z,82.28
2022-12-20T18:27:11.320Z,82.38
2022-12-20T18:29:39.042Z,82.37
2022-12-20T18:32:10.277Z,82.46
2022-12-20T18:34:38.629Z,82.41
2022-12-20T18:37:06.422Z,82.36
2022-12-20T18:39:34.410Z,82.15
2022-12-20T18:42:02.753Z,82.28
2022-12-20T18:44:36.186Z,82.43
2022-12-20T18:47:04.860Z,82.68
2022-12-20T18:49:32.756Z,82.64
2022-12-20T18:52:01.042Z,82.63
2022-12-20T18:54:30.629Z,82.69
2022-12-20T18:56:58.837Z,82.43
2022-12-20T18:59:28.829Z,82.33
2022-12-20T19:01:58.053Z,82.33
2022-12-20T19:04:26.289Z,82.44
2022-12-20T19:06:54.193Z,82.43
2022-12-20T19:09:22.677Z,82.32
2022-12-20T19:11:56.547Z,82.26
2022-12-20T19:14:26.021Z,83.53
2022-12-20T19:16:57.321Z,83.15
2022-12-20T19:19:29.005Z,83.05
2022-12-20T19:21:57.006Z,83.01
2022-12-20T19:24:28.135Z,83.29
2022-12-20T19:26:55.968Z,83.31
2022-12-20T19:29:23.682Z,83.19
2022-12-20T19:31:52.054Z,83.24
2022-12-20T19:34:20.112Z,83.14
2022-12-20T19:36:49.008Z,82.74
2022-12-20T19:39:23.731Z,82.57
2022-12-20T19:42:22.285Z,82.48
2022-12-20T19:44:44.515Z,82.25
2022-12-20T19:47:13.479Z,82.32
2022-12-20T19:49:41.350Z,82.23
2022-12-20T19:52:09.508Z,82.28
2022-12-20T19:54:37.280Z,82.18
2022-12-20T19:57:05.319Z,82.18
2022-12-20T19:59:33.774Z,82.49
2022-12-20T20:02:05.012Z,82.51
2022-12-20T20:04:33.639Z,82.63
2022-12-20T20:07:03.094Z,83.07
2022-12-20T20:09:34.659Z,83.14
2022-12-20T20:12:03.004Z,81.83
2022-12-20T20:14:33.968Z,84.55
2022-12-20T20:17:02.281Z,82.88
2022-12-20T20:19:30.205Z,75.70
2022-12-20T20:21:58.120Z,78.23
2022-12-20T20:24:26.374Z,78.96
2022-12-20T20:26:54.155Z,79.05
2022-12-20T20:29:25.271Z,80.21
2022-12-20T20:31:53.577Z,81.23
2022-12-20T20:34:21.773Z,82.88
2022-12-20T20:36:49.497Z,83.00
2022-12-20T20:39:17.616Z,84.20
2022-12-20T20:41:45.465Z,84.82
2022-12-20T20:44:13.555Z,86.84
2022-12-20T20:46:41.974Z,86.01
2022-12-20T20:49:10.185Z,86.42
2022-12-20T20:51:38.180Z,87.07
2022-12-20T20:54:06.387Z,87.30
2022-12-20T20:56:34.176Z,88.10
2022-12-20T20:59:06.919Z,88.21
2022-12-20T21:01:37.269Z,87.70
2022-12-20T21:04:06.103Z,87.64
2022-12-20T21:06:41.203Z,88.52
2022-12-20T21:09:10.243Z,88.50
2022-12-20T21:11:41.120Z,88.51
2022-12-20T21:14:09.107Z,89.27
2022-12-20T21:16:38.035Z,88.36
2022-12-20T21:19:05.959Z,88.64
2022-12-20T21:21:33.895Z,88.15
2022-12-20T21:24:02.192Z,88.63
2022-12-20T21:26:33.083Z,88.64
2022-12-20T21:29:01.482Z,89.58
2022-12-20T21:31:29.824Z,89.79
2022-12-20T21:33:58.444Z,89.18
2022-12-20T21:36:26.705Z,90.04
2022-12-20T21:38:57.201Z,89.88
2022-12-20T21:41:27.381Z,90.08
2022-12-20T21:43:57.327Z,90.27
2022-12-20T21:46:26.714Z,89.23
2022-12-20T21:48:58.994Z,88.73
2022-12-20T21:51:31.432Z,88.86
2022-12-20T21:54:01.215Z,88.93
2022-12-20T21:56:31.881Z,89.64
2022-12-20T21:59:00.410Z,89.15
2022-12-20T22:01:30.044Z,89.04
2022-12-20T22:04:00.913Z,89.04
2022-12-20T22:06:29.248Z,89.43
2022-12-20T22:09:02.648Z,89.85
2022-12-20T22:11:30.711Z,90.35
2022-12-20T22:13:58.502Z,89.89
2022-12-20T22:16:35.242Z,89.99
2022-12-20T22:19:04.257Z,89.75
2022-12-20T22:21:33.908Z,89.76
2022-12-20T22:24:02.381Z,90.69
2022-12-20T22:26:33.632Z,89.73
2022-12-20T22:29:04.744Z,90.00
2022-12-20T22:31:33.928Z,90.42
2022-12-20T22:34:02.236Z,90.64
2022-12-20T22:36:33.039Z,90.51
2022-12-20T22:39:01.286Z,90.64
2022-12-20T22:41:35.114Z,90.12
2022-12-20T22:44:06.436Z,90.07
2022-12-20T22:49:19.848Z,89.51
2022-12-20T22:52:02.705Z,90.56
2022-12-20T22:54:39.354Z,90.10
2022-12-20T22:57:07.211Z,90.01
2022-12-20T22:59:36.823Z,91.18
2022-12-20T23:02:05.510Z,90.37
2022-12-20T23:04:33.505Z,89.60
2022-12-20T23:07:01.871Z,90.20
2022-12-20T23:09:29.742Z,90.85
2022-12-20T23:12:15.913Z,90.82
2022-12-20T23:15:05.472Z,90.75
2022-12-20T23:17:33.692Z,90.59
2022-12-20T23:20:20.510Z,89.52
2022-12-20T23:22:48.819Z,89.85
2022-12-20T23:25:19.291Z,90.10
2022-12-20T23:27:48.958Z,89.56
2022-12-20T23:30:20.799Z,90.06
2022-12-20T23:32:52.449Z,89.72
2022-12-20T23:35:21.697Z,89.25
2022-12-20T23:37:49.571Z,89.26
2022-12-20T23:40:20.271Z,89.30
2022-12-20T23:42:48.530Z,89.73
2022-12-20T23:45:16.444Z,89.68
2022-12-20T23:47:44.265Z,89.34
2022-12-20T23:50:12.523Z,89.08
2022-12-20T23:52:40.787Z,88.96
2022-12-20T23:55:08.780Z,88.84
2022-12-20T23:57:40.271Z,89.00
